Nearby METAR Reports

 

KAUS - Austin, Texas, USA
Distance from station: WNW 16mi, 26km
Updated: Fri, 21-Sep-2018 11:55am CDT
Mostly cloudy
Mostly cloudy
 Wind from S
Wind: S 13 mph , 20 km/h
Temperature: 86°F , 30°C
Heat Index: 95°F , 35°C
Dew Point: 75°F , 24°C
Humidity: 70%
Barometer: 29.96 inHg , 1014.6 hPa
Clouds: Mostly cloudy
Visibility: 10 miles , 16 km
Cloud details: Partly cloudy 2500 ft
Partly cloudy 3600 ft
Mostly cloudy 4500 ft
2018/09/21 16:55 KAUS 211655Z 18011KT 10SM SCT025 SCT036 BKN045 30/24 A2996 RMK AO2 T03000244
KEDC - Austin Exec, Texas, USA
Distance from station: NNW 21mi, 34km
Updated: Fri, 21-Sep-2018 12:35pm CDT
Light rain, Mostly cloudy
Light rain, Mostly cloudy
 Wind from S
Wind: S 8 mph , 13 km/h
Temperature: 82°F , 28°C
Heat Index: 90°F , 32°C
Dew Point: 77°F , 25°C
Humidity: 84%
Barometer: 29.96 inHg , 1014.6 hPa
Summary: Light rain
Clouds: Mostly cloudy
Visibility: 5 miles , 8 km
Cloud details: Partly cloudy 2400 ft
Mostly cloudy 3200 ft
Mostly cloudy 4000 ft
2018/09/21 17:35 KEDC 211735Z AUTO 19007KT 5SM -RA SCT024 BKN032 BKN040 28/25 A2996 RMK AO2
 
KATT - Austin/Mabry, Texas, USA
Distance from station: NW 25mi, 39km
Updated: Fri, 21-Sep-2018 12:51pm CDT
Mostly cloudy
Mostly cloudy
 Wind from SSE
Wind: SSE 7 mph , 11 km/h
Temperature: 86°F , 30°C
Heat Index: 93°F , 34°C
Dew Point: 73°F , 23°C
Humidity: 66%
Barometer: 29.96 inHg , 1014.6 hPa
Clouds: Mostly cloudy
Visibility: 10 miles , 16 km
Cloud details: Few Clouds 2900 ft
Partly cloudy 3300 ft
Mostly cloudy 4300 ft
2018/09/21 17:51 KATT 211751Z AUTO 15006KT 10SM FEW029 SCT033 BKN043 30/23 A2996 RMK AO2 SLP133 60000 T03000233 10311 20256 58003
KGYB - Giddings-Lee, Texas, USA
Distance from station: E 27mi, 43km
Updated: Fri, 21-Sep-2018 12:35pm CDT
Partly cloudy
Partly cloudy
 Wind from S
Wind: S 10 mph , 17 km/h, Gust: 16 mph , 26 km/h
Temperature: 82°F , 28°C
Heat Index: 86°F , 30°C
Dew Point: 70°F , 21°C
Humidity: 66%
Barometer: 29.97 inHg , 1014.9 hPa
Clouds: Partly cloudy
Visibility: 10 miles , 16 km
Cloud details: Partly cloudy 3200 ft
Partly cloudy 3900 ft
2018/09/21 17:35 KGYB 211735Z AUTO 17009G14KT 140V220 10SM SCT032 SCT039 28/21 A2997 RMK AO2 T02830207
 
KHYI - San Marcos, Texas, USA
Distance from station: WSW 31mi, 49km
Updated: Fri, 21-Sep-2018 12:19pm CDT
Partly cloudy
Partly cloudy
 Wind from S
Wind: S 14 mph , 22 km/h
Temperature: 84°F , 29°C
Heat Index: 96°F , 36°C
Dew Point: 79°F , 26°C
Humidity: 84%
Barometer: 29.97 inHg , 1014.9 hPa
Clouds: Partly cloudy
Visibility: 10 miles , 16 km
Cloud details: Few Clouds 2000 ft
Partly cloudy 2500 ft
Partly cloudy 3100 ft
2018/09/21 17:19 KHYI 211719Z 17012KT 10SM FEW020 SCT025 SCT031 29/26 A2997 RMK AO2 P0001 $
K3T5 - La Grange, Texas, USA
Distance from station: ESE 32mi, 52km
Updated: Fri, 21-Sep-2018 12:35pm CDT
Partly cloudy
Partly cloudy
 Wind from S
Wind: S 10 mph , 17 km/h, Gust: 16 mph , 26 km/h
Temperature: 91°F , 33°C
Heat Index: 107°F , 42°C
Dew Point: 79°F , 26°C
Humidity: 67%
Barometer: 29.93 inHg , 1013.5 hPa
Clouds: Partly cloudy
Visibility: 10 miles , 16 km
Cloud details: Partly cloudy 3400 ft
Partly cloudy 4400 ft
2018/09/21 17:35 K3T5 211735Z AUTO 18009G14KT 10SM SCT034 SCT044 33/26 A2993 RMK AO2 T03270255
 
KT20 - Gonzales Muni, Texas, USA
Distance from station: S 41mi, 67km
Updated: Fri, 21-Sep-2018 12:35pm CDT
Partly cloudy
Partly cloudy
 Wind from S
Wind: S 8 mph , 13 km/h
Temperature: 88°F , 31°C
Heat Index: 100°F , 38°C
Dew Point: 77°F , 25°C
Humidity: 70%
Barometer: 29.95 inHg , 1014.2 hPa
Clouds: Partly cloudy
Visibility: 10 miles , 16 km
Cloud details: Partly cloudy 3000 ft
2018/09/21 17:35 KT20 211735Z AUTO 18007KT 10SM SCT030 31/25 A2995 RMK AO2 T03130245
KRYW - Lago Vista, Texas, USA
Distance from station: NW 42mi, 67km
Updated: Fri, 21-Sep-2018 12:35pm CDT
Partly cloudy
Partly cloudy
 Wind from S
Wind: S 9 mph , 15 km/h, Gust: 20 mph , 31 km/h
Temperature: 84°F , 29°C
Heat Index: 90°F , 32°C
Dew Point: 73°F , 23°C
Humidity: 70%
Barometer: 29.99 inHg , 1015.6 hPa
Clouds: Partly cloudy
Visibility: 10 miles , 16 km
Cloud details: Partly cloudy 2100 ft
Partly cloudy 3500 ft
2018/09/21 17:35 KRYW 211735Z AUTO 19008G17KT 10SM SCT021 SCT035 29/23 A2999 RMK AO2 T02870234
 
KGTU - Georgetown, Texas, USA
Distance from station: NNW 42mi, 68km
Updated: Fri, 21-Sep-2018 12:03pm CDT
Mostly cloudy
Mostly cloudy
 Wind from SSE
Wind: SSE 13 mph , 20 km/h
Temperature: 82°F , 28°C
Heat Index: 89°F , 32°C
Dew Point: 75°F , 24°C
Humidity: 79%
Barometer: 29.98 inHg , 1015.2 hPa
Clouds: Mostly cloudy
Visibility: 10 miles , 16 km
Cloud details: Partly cloudy 1600 ft
Mostly cloudy 2100 ft
Mostly cloudy 2700 ft
2018/09/21 17:03 KGTU 211703Z 16011KT 10SM SCT016 BKN021 BKN027 28/24 A2998 RMK AO2
KBAZ - New Braunfels, Texas, USA
Distance from station: SW 46mi, 74km
Updated: Fri, 21-Sep-2018 12:51pm CDT
Few Clouds
Few Clouds
 Wind from S
Wind: S 10 mph , 17 km/h
Temperature: 86°F , 30°C
Heat Index: 93°F , 34°C
Dew Point: 73°F , 23°C
Humidity: 66%
Barometer: 29.94 inHg , 1013.9 hPa
Clouds: Few Clouds
Visibility: 10 miles , 16 km
Cloud details: Few Clouds 3400 ft
2018/09/21 17:51 KBAZ 211751Z 19009KT 10SM FEW034 30/23 A2994 RMK AO2 SLP129 60000 T03000233 10300 20256 58003